sensor_id;sensor_type;location;lat;lon;timestamp;P1;durP1;ratioP1;P2;durP2;ratioP2
7150;SDS011;3617;48.836;9.172;2023-09-12T00:01:06;7.20;;;4.67;;
7150;SDS011;3617;48.836;9.172;2023-09-12T00:03:33;6.35;;;5.03;;
7150;SDS011;3617;48.836;9.172;2023-09-12T00:06:00;11.18;;;5.43;;
7150;SDS011;3617;48.836;9.172;2023-09-12T00:08:26;9.25;;;5.55;;
7150;SDS011;3617;48.836;9.172;2023-09-12T00:11:01;8.90;;;5.50;;
7150;SDS011;3617;48.836;9.172;2023-09-12T00:13:29;8.63;;;5.10;;
7150;SDS011;3617;48.836;9.172;2023-09-12T00:15:55;11.10;;;5.93;;
7150;SDS011;3617;48.836;9.172;2023-09-12T00:18:21;11.33;;;6.40;;
7150;SDS011;3617;48.836;9.172;2023-09-12T00:20:47;11.03;;;5.97;;
7150;SDS011;3617;48.836;9.172;2023-09-12T00:23:13;8.47;;;5.50;;
7150;SDS011;3617;48.836;9.172;2023-09-12T00:25:39;8.33;;;5.20;;
7150;SDS011;3617;48.836;9.172;2023-09-12T00:28:05;10.37;;;5.60;;
7150;SDS011;3617;48.836;9.172;2023-09-12T00:30:31;11.43;;;6.57;;
7150;SDS011;3617;48.836;9.172;2023-09-12T00:32:57;11.43;;;6.10;;
7150;SDS011;3617;48.836;9.172;2023-09-12T00:35:22;8.27;;;5.93;;
7150;SDS011;3617;48.836;9.172;2023-09-12T00:37:48;8.43;;;5.45;;
7150;SDS011;3617;48.836;9.172;2023-09-12T00:40:14;8.23;;;5.63;;
7150;SDS011;3617;48.836;9.172;2023-09-12T00:42:40;8.27;;;5.50;;
7150;SDS011;3617;48.836;9.172;2023-09-12T00:45:06;9.48;;;5.65;;
7150;SDS011;3617;48.836;9.172;2023-09-12T00:47:32;11.00;;;5.80;;
7150;SDS011;3617;48.836;9.172;2023-09-12T00:50:01;9.53;;;5.57;;
7150;SDS011;3617;48.836;9.172;2023-09-12T00:52:28;9.27;;;5.93;;
7150;SDS011;3617;48.836;9.172;2023-09-12T00:54:54;7.60;;;5.40;;
7150;SDS011;3617;48.836;9.172;2023-09-12T00:57:20;6.87;;;5.10;;
7150;SDS011;3617;48.836;9.172;2023-09-12T00:59:47;8.80;;;5.40;;
7150;SDS011;3617;48.836;9.172;2023-09-12T01:02:13;8.15;;;5.28;;
7150;SDS011;3617;48.836;9.172;2023-09-12T01:04:39;9.77;;;5.67;;
7150;SDS011;3617;48.836;9.172;2023-09-12T01:07:06;10.70;;;5.72;;
7150;SDS011;3617;48.836;9.172;2023-09-12T01:09:32;9.83;;;5.53;;
7150;SDS011;3617;48.836;9.172;2023-09-12T01:11:59;7.00;;;5.40;;
7150;SDS011;3617;48.836;9.172;2023-09-12T01:14:27;8.50;;;5.67;;
7150;SDS011;3617;48.836;9.172;2023-09-12T01:16:53;11.97;;;6.30;;
7150;SDS011;3617;48.836;9.172;2023-09-12T01:19:19;12.77;;;6.30;;
7150;SDS011;3617;48.836;9.172;2023-09-12T01:27:19;9.80;;;5.80;;
7150;SDS011;3617;48.836;9.172;2023-09-12T01:29:46;9.30;;;5.80;;
7150;SDS011;3617;48.836;9.172;2023-09-12T01:32:14;8.93;;;6.33;;
7150;SDS011;3617;48.836;9.172;2023-09-12T01:34:42;8.23;;;5.33;;
7150;SDS011;3617;48.836;9.172;2023-09-12T01:37:08;8.53;;;5.70;;
7150;SDS011;3617;48.836;9.172;2023-09-12T01:39:34;11.17;;;6.17;;
7150;SDS011;3617;48.836;9.172;2023-09-12T01:42:00;11.90;;;6.40;;
7150;SDS011;3617;48.836;9.172;2023-09-12T01:44:27;8.63;;;5.87;;
7150;SDS011;3617;48.836;9.172;2023-09-12T01:46:54;11.37;;;5.77;;
7150;SDS011;3617;48.836;9.172;2023-09-12T01:49:21;10.95;;;5.72;;
7150;SDS011;3617;48.836;9.172;2023-09-12T01:51:48;8.32;;;5.28;;
7150;SDS011;3617;48.836;9.172;2023-09-12T01:54:14;7.60;;;5.60;;
7150;SDS011;3617;48.836;9.172;2023-09-12T01:56:40;9.13;;;6.17;;
7150;SDS011;3617;48.836;9.172;2023-09-12T01:59:06;9.77;;;6.13;;
7150;SDS011;3617;48.836;9.172;2023-09-12T02:01:32;11.67;;;5.87;;
7150;SDS011;3617;48.836;9.172;2023-09-12T02:03:58;9.40;;;6.00;;
7150;SDS011;3617;48.836;9.172;2023-09-12T02:06:24;7.53;;;5.57;;
7150;SDS011;3617;48.836;9.172;2023-09-12T02:08:50;10.57;;;6.10;;
7150;SDS011;3617;48.836;9.172;2023-09-12T02:11:16;12.17;;;6.33;;
7150;SDS011;3617;48.836;9.172;2023-09-12T02:13:42;9.10;;;6.40;;
7150;SDS011;3617;48.836;9.172;2023-09-12T02:16:08;10.60;;;5.77;;
7150;SDS011;3617;48.836;9.172;2023-09-12T02:18:34;9.97;;;6.13;;
7150;SDS011;3617;48.836;9.172;2023-09-12T02:21:00;8.87;;;6.20;;
7150;SDS011;3617;48.836;9.172;2023-09-12T02:23:26;9.03;;;6.00;;
7150;SDS011;3617;48.836;9.172;2023-09-12T02:25:52;11.93;;;6.13;;
7150;SDS011;3617;48.836;9.172;2023-09-12T02:28:17;10.03;;;6.47;;
7150;SDS011;3617;48.836;9.172;2023-09-12T02:30:43;9.73;;;6.23;;
7150;SDS011;3617;48.836;9.172;2023-09-12T02:33:09;10.80;;;6.40;;
7150;SDS011;3617;48.836;9.172;2023-09-12T02:35:35;10.77;;;6.33;;
7150;SDS011;3617;48.836;9.172;2023-09-12T02:38:01;9.97;;;6.00;;
7150;SDS011;3617;48.836;9.172;2023-09-12T02:40:27;9.30;;;6.43;;
7150;SDS011;3617;48.836;9.172;2023-09-12T02:42:53;8.77;;;5.50;;
7150;SDS011;3617;48.836;9.172;2023-09-12T02:45:19;10.47;;;6.10;;
7150;SDS011;3617;48.836;9.172;2023-09-12T02:47:45;8.63;;;5.87;;
7150;SDS011;3617;48.836;9.172;2023-09-12T02:50:11;9.67;;;5.73;;
7150;SDS011;3617;48.836;9.172;2023-09-12T02:52:37;8.20;;;5.77;;
7150;SDS011;3617;48.836;9.172;2023-09-12T02:55:03;10.40;;;6.00;;
7150;SDS011;3617;48.836;9.172;2023-09-12T02:57:29;11.00;;;6.10;;
7150;SDS011;3617;48.836;9.172;2023-09-12T02:59:55;9.40;;;6.23;;
7150;SDS011;3617;48.836;9.172;2023-09-12T03:02:21;11.83;;;5.93;;
7150;SDS011;3617;48.836;9.172;2023-09-12T03:04:47;7.57;;;5.53;;
7150;SDS011;3617;48.836;9.172;2023-09-12T03:07:13;10.20;;;5.83;;
7150;SDS011;3617;48.836;9.172;2023-09-12T03:09:39;8.63;;;5.07;;
7150;SDS011;3617;48.836;9.172;2023-09-12T03:12:05;7.57;;;4.87;;
7150;SDS011;3617;48.836;9.172;2023-09-12T03:14:31;8.13;;;5.70;;
7150;SDS011;3617;48.836;9.172;2023-09-12T03:16:57;8.90;;;5.07;;
7150;SDS011;3617;48.836;9.172;2023-09-12T03:19:23;7.67;;;6.03;;
7150;SDS011;3617;48.836;9.172;2023-09-12T03:21:49;11.10;;;5.80;;
7150;SDS011;3617;48.836;9.172;2023-09-12T03:24:15;8.93;;;5.97;;
7150;SDS011;3617;48.836;9.172;2023-09-12T03:26:43;8.63;;;5.83;;
7150;SDS011;3617;48.836;9.172;2023-09-12T03:29:10;10.10;;;5.07;;
7150;SDS011;3617;48.836;9.172;2023-09-12T03:31:35;7.73;;;4.93;;
7150;SDS011;3617;48.836;9.172;2023-09-12T03:34:01;9.20;;;5.53;;
7150;SDS011;3617;48.836;9.172;2023-09-12T03:36:27;8.97;;;5.73;;
7150;SDS011;3617;48.836;9.172;2023-09-12T03:38:53;10.13;;;5.77;;
7150;SDS011;3617;48.836;9.172;2023-09-12T03:41:19;13.27;;;6.33;;
7150;SDS011;3617;48.836;9.172;2023-09-12T03:43:50;10.40;;;6.07;;
7150;SDS011;3617;48.836;9.172;2023-09-12T03:46:16;8.40;;;5.43;;
7150;SDS011;3617;48.836;9.172;2023-09-12T03:48:41;7.83;;;5.60;;
7150;SDS011;3617;48.836;9.172;2023-09-12T03:51:07;8.60;;;5.97;;
7150;SDS011;3617;48.836;9.172;2023-09-12T03:53:33;9.67;;;5.20;;
7150;SDS011;3617;48.836;9.172;2023-09-12T03:55:59;10.17;;;6.03;;
7150;SDS011;3617;48.836;9.172;2023-09-12T03:58:25;7.80;;;6.00;;
7150;SDS011;3617;48.836;9.172;2023-09-12T04:00:52;8.30;;;6.07;;
7150;SDS011;3617;48.836;9.172;2023-09-12T04:03:17;9.33;;;5.47;;
7150;SDS011;3617;48.836;9.172;2023-09-12T04:05:46;9.90;;;5.93;;
7150;SDS011;3617;48.836;9.172;2023-09-12T04:08:12;7.53;;;5.57;;
7150;SDS011;3617;48.836;9.172;2023-09-12T04:10:38;11.50;;;5.97;;
7150;SDS011;3617;48.836;9.172;2023-09-12T04:13:04;9.80;;;5.73;;
7150;SDS011;3617;48.836;9.172;2023-09-12T04:15:30;10.30;;;5.90;;
7150;SDS011;3617;48.836;9.172;2023-09-12T04:17:56;9.47;;;5.70;;
7150;SDS011;3617;48.836;9.172;2023-09-12T04:20:22;7.23;;;5.70;;
7150;SDS011;3617;48.836;9.172;2023-09-12T04:22:48;12.13;;;5.70;;
7150;SDS011;3617;48.836;9.172;2023-09-12T04:25:14;8.43;;;4.93;;
7150;SDS011;3617;48.836;9.172;2023-09-12T04:27:41;9.90;;;5.53;;
7150;SDS011;3617;48.836;9.172;2023-09-12T04:30:07;8.20;;;5.63;;
7150;SDS011;3617;48.836;9.172;2023-09-12T04:32:33;12.27;;;5.73;;
7150;SDS011;3617;48.836;9.172;2023-09-12T04:35:00;10.47;;;5.73;;
7150;SDS011;3617;48.836;9.172;2023-09-12T04:37:26;9.70;;;5.57;;
7150;SDS011;3617;48.836;9.172;2023-09-12T04:39:51;9.27;;;5.93;;
7150;SDS011;3617;48.836;9.172;2023-09-12T04:42:17;8.67;;;5.47;;
7150;SDS011;3617;48.836;9.172;2023-09-12T04:44:43;10.67;;;5.67;;
7150;SDS011;3617;48.836;9.172;2023-09-12T04:47:09;7.57;;;5.20;;
7150;SDS011;3617;48.836;9.172;2023-09-12T04:49:35;6.83;;;5.07;;
7150;SDS011;3617;48.836;9.172;2023-09-12T04:52:01;8.27;;;5.80;;
7150;SDS011;3617;48.836;9.172;2023-09-12T04:54:27;7.33;;;5.03;;
7150;SDS011;3617;48.836;9.172;2023-09-12T04:56:53;6.70;;;5.03;;
7150;SDS011;3617;48.836;9.172;2023-09-12T04:59:20;9.43;;;5.53;;
7150;SDS011;3617;48.836;9.172;2023-09-12T05:01:46;11.40;;;5.70;;
7150;SDS011;3617;48.836;9.172;2023-09-12T05:04:12;8.67;;;6.00;;
7150;SDS011;3617;48.836;9.172;2023-09-12T05:06:38;7.70;;;5.20;;
7150;SDS011;3617;48.836;9.172;2023-09-12T05:09:05;8.90;;;5.77;;
7150;SDS011;3617;48.836;9.172;2023-09-12T05:11:33;10.30;;;5.67;;
7150;SDS011;3617;48.836;9.172;2023-09-12T05:14:00;9.77;;;5.23;;
7150;SDS011;3617;48.836;9.172;2023-09-12T05:16:28;10.23;;;5.93;;
7150;SDS011;3617;48.836;9.172;2023-09-12T05:18:54;8.40;;;5.53;;
7150;SDS011;3617;48.836;9.172;2023-09-12T05:21:20;10.73;;;5.17;;
7150;SDS011;3617;48.836;9.172;2023-09-12T05:23:46;8.30;;;5.13;;
7150;SDS011;3617;48.836;9.172;2023-09-12T05:26:12;13.03;;;5.73;;
7150;SDS011;3617;48.836;9.172;2023-09-12T05:28:38;8.40;;;5.20;;
7150;SDS011;3617;48.836;9.172;2023-09-12T05:31:04;9.67;;;5.60;;
7150;SDS011;3617;48.836;9.172;2023-09-12T05:33:30;7.83;;;5.63;;
7150;SDS011;3617;48.836;9.172;2023-09-12T05:35:56;9.67;;;5.57;;
7150;SDS011;3617;48.836;9.172;2023-09-12T05:38:22;10.77;;;5.70;;
7150;SDS011;3617;48.836;9.172;2023-09-12T05:40:48;12.07;;;5.97;;
7150;SDS011;3617;48.836;9.172;2023-09-12T05:43:15;8.17;;;5.30;;
7150;SDS011;3617;48.836;9.172;2023-09-12T05:45:41;8.63;;;5.20;;
7150;SDS011;3617;48.836;9.172;2023-09-12T05:48:07;8.07;;;4.70;;
7150;SDS011;3617;48.836;9.172;2023-09-12T05:50:34;8.77;;;5.10;;
7150;SDS011;3617;48.836;9.172;2023-09-12T05:53:01;8.48;;;5.32;;
7150;SDS011;3617;48.836;9.172;2023-09-12T05:55:27;11.87;;;5.77;;
7150;SDS011;3617;48.836;9.172;2023-09-12T05:57:53;7.88;;;5.50;;
7150;SDS011;3617;48.836;9.172;2023-09-12T06:00:19;8.90;;;5.57;;
7150;SDS011;3617;48.836;9.172;2023-09-12T06:02:46;8.13;;;5.22;;
7150;SDS011;3617;48.836;9.172;2023-09-12T06:05:12;8.63;;;5.95;;
7150;SDS011;3617;48.836;9.172;2023-09-12T06:07:38;7.97;;;4.95;;
7150;SDS011;3617;48.836;9.172;2023-09-12T06:10:05;10.32;;;5.47;;
7150;SDS011;3617;48.836;9.172;2023-09-12T06:12:31;8.32;;;4.95;;
7150;SDS011;3617;48.836;9.172;2023-09-12T06:14:58;11.43;;;5.35;;
7150;SDS011;3617;48.836;9.172;2023-09-12T06:17:24;6.78;;;5.28;;
7150;SDS011;3617;48.836;9.172;2023-09-12T06:19:50;7.68;;;4.97;;
7150;SDS011;3617;48.836;9.172;2023-09-12T06:22:16;6.53;;;5.13;;
7150;SDS011;3617;48.836;9.172;2023-09-12T06:24:42;8.27;;;5.78;;
7150;SDS011;3617;48.836;9.172;2023-09-12T06:27:08;7.20;;;5.10;;
7150;SDS011;3617;48.836;9.172;2023-09-12T06:29:37;7.10;;;4.93;;
7150;SDS011;3617;48.836;9.172;2023-09-12T06:32:03;8.45;;;5.45;;
7150;SDS011;3617;48.836;9.172;2023-09-12T06:34:29;9.65;;;5.72;;
7150;SDS011;3617;48.836;9.172;2023-09-12T06:36:55;5.57;;;4.60;;
7150;SDS011;3617;48.836;9.172;2023-09-12T06:39:21;8.00;;;5.50;;
7150;SDS011;3617;48.836;9.172;2023-09-12T06:41:49;8.90;;;5.30;;
7150;SDS011;3617;48.836;9.172;2023-09-12T06:44:15;8.05;;;5.40;;
7150;SDS011;3617;48.836;9.172;2023-09-12T06:46:41;7.57;;;5.25;;
7150;SDS011;3617;48.836;9.172;2023-09-12T06:49:07;9.32;;;5.47;;
7150;SDS011;3617;48.836;9.172;2023-09-12T06:51:33;8.60;;;5.72;;
7150;SDS011;3617;48.836;9.172;2023-09-12T06:53:59;10.45;;;5.88;;
7150;SDS011;3617;48.836;9.172;2023-09-12T06:56:25;8.82;;;5.72;;
7150;SDS011;3617;48.836;9.172;2023-09-12T06:58:52;9.48;;;6.13;;
7150;SDS011;3617;48.836;9.172;2023-09-12T07:01:20;12.13;;;7.78;;
7150;SDS011;3617;48.836;9.172;2023-09-12T07:03:45;15.82;;;7.00;;
7150;SDS011;3617;48.836;9.172;2023-09-12T07:06:11;10.70;;;6.95;;
7150;SDS011;3617;48.836;9.172;2023-09-12T07:08:38;9.55;;;5.82;;
7150;SDS011;3617;48.836;9.172;2023-09-12T07:11:05;10.00;;;6.30;;
7150;SDS011;3617;48.836;9.172;2023-09-12T07:13:32;11.95;;;6.38;;
7150;SDS011;3617;48.836;9.172;2023-09-12T07:15:58;9.45;;;5.45;;
7150;SDS011;3617;48.836;9.172;2023-09-12T07:18:24;9.95;;;6.07;;
7150;SDS011;3617;48.836;9.172;2023-09-12T07:20:56;12.73;;;6.72;;
7150;SDS011;3617;48.836;9.172;2023-09-12T07:23:22;9.57;;;6.38;;
7150;SDS011;3617;48.836;9.172;2023-09-12T07:25:48;12.07;;;5.90;;
7150;SDS011;3617;48.836;9.172;2023-09-12T07:28:14;11.32;;;7.10;;
7150;SDS011;3617;48.836;9.172;2023-09-12T07:30:40;13.73;;;6.13;;
7150;SDS011;3617;48.836;9.172;2023-09-12T07:33:06;12.55;;;6.63;;
7150;SDS011;3617;48.836;9.172;2023-09-12T07:35:32;9.68;;;5.88;;
7150;SDS011;3617;48.836;9.172;2023-09-12T07:37:59;10.45;;;6.25;;
7150;SDS011;3617;48.836;9.172;2023-09-12T07:40:24;10.75;;;7.70;;
7150;SDS011;3617;48.836;9.172;2023-09-12T07:42:51;8.98;;;6.10;;
7150;SDS011;3617;48.836;9.172;2023-09-12T07:45:17;8.82;;;5.47;;
7150;SDS011;3617;48.836;9.172;2023-09-12T07:47:43;12.02;;;6.72;;
7150;SDS011;3617;48.836;9.172;2023-09-12T07:50:09;13.10;;;7.32;;
7150;SDS011;3617;48.836;9.172;2023-09-12T07:52:35;11.73;;;7.03;;
7150;SDS011;3617;48.836;9.172;2023-09-12T07:55:02;11.98;;;6.80;;
7150;SDS011;3617;48.836;9.172;2023-09-12T07:57:28;8.75;;;6.18;;
7150;SDS011;3617;48.836;9.172;2023-09-12T07:59:54;9.52;;;5.82;;
7150;SDS011;3617;48.836;9.172;2023-09-12T08:02:20;8.68;;;6.20;;
7150;SDS011;3617;48.836;9.172;2023-09-12T08:04:46;10.73;;;6.07;;
7150;SDS011;3617;48.836;9.172;2023-09-12T08:07:12;10.02;;;6.05;;
7150;SDS011;3617;48.836;9.172;2023-09-12T08:09:54;10.40;;;6.22;;
7150;SDS011;3617;48.836;9.172;2023-09-12T08:12:22;10.93;;;6.40;;
7150;SDS011;3617;48.836;9.172;2023-09-12T08:14:48;9.30;;;5.95;;
7150;SDS011;3617;48.836;9.172;2023-09-12T08:17:14;10.00;;;6.05;;
7150;SDS011;3617;48.836;9.172;2023-09-12T08:19:40;10.70;;;6.53;;
7150;SDS011;3617;48.836;9.172;2023-09-12T08:22:07;11.60;;;6.05;;
7150;SDS011;3617;48.836;9.172;2023-09-12T08:24:33;10.35;;;5.95;;
7150;SDS011;3617;48.836;9.172;2023-09-12T08:26:59;9.32;;;6.45;;
7150;SDS011;3617;48.836;9.172;2023-09-12T08:29:28;11.27;;;7.10;;
7150;SDS011;3617;48.836;9.172;2023-09-12T08:31:54;9.93;;;6.05;;
7150;SDS011;3617;48.836;9.172;2023-09-12T08:34:20;11.80;;;6.90;;
7150;SDS011;3617;48.836;9.172;2023-09-12T08:36:46;11.68;;;5.95;;
7150;SDS011;3617;48.836;9.172;2023-09-12T08:39:14;11.57;;;6.03;;
7150;SDS011;3617;48.836;9.172;2023-09-12T08:41:41;10.65;;;6.15;;
7150;SDS011;3617;48.836;9.172;2023-09-12T08:44:07;10.65;;;5.45;;
7150;SDS011;3617;48.836;9.172;2023-09-12T08:46:33;9.30;;;5.65;;
7150;SDS011;3617;48.836;9.172;2023-09-12T08:48:59;8.57;;;5.40;;
7150;SDS011;3617;48.836;9.172;2023-09-12T08:51:25;8.88;;;5.63;;
7150;SDS011;3617;48.836;9.172;2023-09-12T08:53:52;12.07;;;5.97;;
7150;SDS011;3617;48.836;9.172;2023-09-12T08:56:18;7.80;;;5.32;;
7150;SDS011;3617;48.836;9.172;2023-09-12T08:58:44;9.20;;;6.60;;
7150;SDS011;3617;48.836;9.172;2023-09-12T09:01:12;12.85;;;6.32;;
7150;SDS011;3617;48.836;9.172;2023-09-12T09:03:42;9.23;;;6.05;;
7150;SDS011;3617;48.836;9.172;2023-09-12T09:06:09;8.75;;;5.68;;
7150;SDS011;3617;48.836;9.172;2023-09-12T09:08:36;13.63;;;6.22;;
7150;SDS011;3617;48.836;9.172;2023-09-12T09:11:02;8.98;;;5.65;;
7150;SDS011;3617;48.836;9.172;2023-09-12T09:13:30;10.05;;;5.47;;
7150;SDS011;3617;48.836;9.172;2023-09-12T09:19:14;6.43;;;5.22;;
7150;SDS011;3617;48.836;9.172;2023-09-12T09:21:36;6.55;;;5.45;;
7150;SDS011;3617;48.836;9.172;2023-09-12T09:24:09;8.55;;;6.00;;
7150;SDS011;3617;48.836;9.172;2023-09-12T09:26:45;7.13;;;6.03;;
7150;SDS011;3617;48.836;9.172;2023-09-12T09:29:18;6.82;;;5.28;;
7150;SDS011;3617;48.836;9.172;2023-09-12T09:31:46;6.75;;;5.60;;
7150;SDS011;3617;48.836;9.172;2023-09-12T09:34:12;6.72;;;5.32;;
7150;SDS011;3617;48.836;9.172;2023-09-12T09:36:42;6.43;;;5.15;;
7150;SDS011;3617;48.836;9.172;2023-09-12T09:39:08;5.53;;;4.60;;
7150;SDS011;3617;48.836;9.172;2023-09-12T09:41:35;6.43;;;5.38;;
7150;SDS011;3617;48.836;9.172;2023-09-12T09:44:02;8.30;;;5.15;;
7150;SDS011;3617;48.836;9.172;2023-09-12T09:46:29;7.22;;;4.80;;
7150;SDS011;3617;48.836;9.172;2023-09-12T09:48:55;7.60;;;4.85;;
7150;SDS011;3617;48.836;9.172;2023-09-12T09:51:21;5.70;;;4.38;;
7150;SDS011;3617;48.836;9.172;2023-09-12T09:53:50;6.53;;;4.40;;
7150;SDS011;3617;48.836;9.172;2023-09-12T09:56:16;5.38;;;4.45;;
7150;SDS011;3617;48.836;9.172;2023-09-12T09:58:48;6.55;;;4.78;;
7150;SDS011;3617;48.836;9.172;2023-09-12T10:01:19;7.45;;;4.60;;
7150;SDS011;3617;48.836;9.172;2023-09-12T10:03:46;7.57;;;5.05;;
7150;SDS011;3617;48.836;9.172;2023-09-12T10:06:16;6.93;;;4.90;;
7150;SDS011;3617;48.836;9.172;2023-09-12T10:08:43;6.78;;;5.13;;
7150;SDS011;3617;48.836;9.172;2023-09-12T10:11:12;6.28;;;4.80;;
7150;SDS011;3617;48.836;9.172;2023-09-12T10:13:38;5.50;;;4.75;;
7150;SDS011;3617;48.836;9.172;2023-09-12T10:16:06;5.15;;;4.25;;
7150;SDS011;3617;48.836;9.172;2023-09-12T10:18:34;5.10;;;4.03;;
7150;SDS011;3617;48.836;9.172;2023-09-12T10:21:10;6.03;;;4.65;;
7150;SDS011;3617;48.836;9.172;2023-09-12T10:23:38;6.25;;;4.28;;
7150;SDS011;3617;48.836;9.172;2023-09-12T10:26:07;5.70;;;4.00;;
7150;SDS011;3617;48.836;9.172;2023-09-12T10:28:34;6.43;;;4.90;;
7150;SDS011;3617;48.836;9.172;2023-09-12T10:31:01;7.60;;;5.03;;
7150;SDS011;3617;48.836;9.172;2023-09-12T10:33:27;5.82;;;5.10;;
7150;SDS011;3617;48.836;9.172;2023-09-12T10:35:56;6.50;;;4.50;;
7150;SDS011;3617;48.836;9.172;2023-09-12T10:38:23;5.90;;;4.53;;
7150;SDS011;3617;48.836;9.172;2023-09-12T10:40:49;7.57;;;5.22;;
7150;SDS011;3617;48.836;9.172;2023-09-12T10:43:15;5.90;;;4.50;;
7150;SDS011;3617;48.836;9.172;2023-09-12T10:45:42;5.55;;;4.40;;
7150;SDS011;3617;48.836;9.172;2023-09-12T10:48:09;7.68;;;4.80;;
7150;SDS011;3617;48.836;9.172;2023-09-12T10:50:36;5.82;;;4.50;;
7150;SDS011;3617;48.836;9.172;2023-09-12T10:53:12;7.00;;;3.95;;
7150;SDS011;3617;48.836;9.172;2023-09-12T10:55:39;7.32;;;4.70;;
7150;SDS011;3617;48.836;9.172;2023-09-12T10:58:08;5.53;;;4.47;;
7150;SDS011;3617;48.836;9.172;2023-09-12T11:00:35;6.13;;;4.47;;
7150;SDS011;3617;48.836;9.172;2023-09-12T11:05:51;5.70;;;4.15;;
7150;SDS011;3617;48.836;9.172;2023-09-12T11:08:21;7.63;;;4.35;;
7150;SDS011;3617;48.836;9.172;2023-09-12T11:13:37;7.05;;;4.70;;
7150;SDS011;3617;48.836;9.172;2023-09-12T11:16:15;4.88;;;4.10;;
7150;SDS011;3617;48.836;9.172;2023-09-12T11:21:33;6.75;;;4.00;;
7150;SDS011;3617;48.836;9.172;2023-09-12T11:23:59;6.88;;;3.90;;
7150;SDS011;3617;48.836;9.172;2023-09-12T11:26:25;6.38;;;4.18;;
7150;SDS011;3617;48.836;9.172;2023-09-12T11:28:51;4.55;;;3.80;;
7150;SDS011;3617;48.836;9.172;2023-09-12T11:31:26;8.20;;;4.65;;
7150;SDS011;3617;48.836;9.172;2023-09-12T11:33:53;8.48;;;4.50;;
7150;SDS011;3617;48.836;9.172;2023-09-12T11:36:19;6.43;;;4.25;;
7150;SDS011;3617;48.836;9.172;2023-09-12T11:38:48;7.75;;;4.43;;
7150;SDS011;3617;48.836;9.172;2023-09-12T11:41:38;5.70;;;4.13;;
7150;SDS011;3617;48.836;9.172;2023-09-12T11:44:02;5.35;;;4.25;;
7150;SDS011;3617;48.836;9.172;2023-09-12T11:46:29;6.47;;;3.97;;
7150;SDS011;3617;48.836;9.172;2023-09-12T11:48:56;5.25;;;3.70;;
7150;SDS011;3617;48.836;9.172;2023-09-12T11:51:22;7.30;;;4.13;;
7150;SDS011;3617;48.836;9.172;2023-09-12T11:53:51;5.20;;;3.95;;
7150;SDS011;3617;48.836;9.172;2023-09-12T11:56:18;6.25;;;3.85;;
7150;SDS011;3617;48.836;9.172;2023-09-12T11:58:44;4.55;;;3.97;;
7150;SDS011;3617;48.836;9.172;2023-09-12T12:01:11;5.38;;;4.00;;
7150;SDS011;3617;48.836;9.172;2023-09-12T12:03:39;6.80;;;4.15;;
7150;SDS011;3617;48.836;9.172;2023-09-12T12:06:05;5.05;;;4.00;;
7150;SDS011;3617;48.836;9.172;2023-09-12T12:08:31;5.75;;;4.43;;
7150;SDS011;3617;48.836;9.172;2023-09-12T12:10:57;5.45;;;4.32;;
7150;SDS011;3617;48.836;9.172;2023-09-12T12:13:23;6.85;;;4.60;;
7150;SDS011;3617;48.836;9.172;2023-09-12T12:15:49;7.97;;;3.90;;
7150;SDS011;3617;48.836;9.172;2023-09-12T12:18:17;5.68;;;3.80;;
7150;SDS011;3617;48.836;9.172;2023-09-12T12:20:43;5.28;;;4.28;;
7150;SDS011;3617;48.836;9.172;2023-09-12T12:23:09;6.30;;;4.22;;
7150;SDS011;3617;48.836;9.172;2023-09-12T12:25:35;7.75;;;4.18;;
7150;SDS011;3617;48.836;9.172;2023-09-12T12:28:02;5.45;;;4.28;;
7150;SDS011;3617;48.836;9.172;2023-09-12T12:30:35;7.00;;;4.25;;
7150;SDS011;3617;48.836;9.172;2023-09-12T12:33:01;6.90;;;4.32;;
7150;SDS011;3617;48.836;9.172;2023-09-12T12:35:28;6.68;;;4.32;;
7150;SDS011;3617;48.836;9.172;2023-09-12T12:37:54;6.93;;;4.70;;
7150;SDS011;3617;48.836;9.172;2023-09-12T12:40:21;8.02;;;4.70;;
7150;SDS011;3617;48.836;9.172;2023-09-12T12:42:47;7.10;;;4.30;;
7150;SDS011;3617;48.836;9.172;2023-09-12T12:45:18;6.57;;;4.43;;
7150;SDS011;3617;48.836;9.172;2023-09-12T12:47:44;6.35;;;4.38;;
7150;SDS011;3617;48.836;9.172;2023-09-12T12:50:14;5.05;;;4.07;;
7150;SDS011;3617;48.836;9.172;2023-09-12T12:52:40;7.93;;;4.50;;
7150;SDS011;3617;48.836;9.172;2023-09-12T12:55:07;5.95;;;3.90;;
7150;SDS011;3617;48.836;9.172;2023-09-12T12:57:35;5.70;;;3.92;;
7150;SDS011;3617;48.836;9.172;2023-09-12T13:00:01;4.47;;;3.92;;
7150;SDS011;3617;48.836;9.172;2023-09-12T13:02:28;6.28;;;4.28;;
7150;SDS011;3617;48.836;9.172;2023-09-12T13:04:54;5.75;;;4.65;;
7150;SDS011;3617;48.836;9.172;2023-09-12T13:07:20;8.13;;;5.20;;
7150;SDS011;3617;48.836;9.172;2023-09-12T13:09:46;8.35;;;5.03;;
7150;SDS011;3617;48.836;9.172;2023-09-12T13:12:13;6.13;;;4.05;;
7150;SDS011;3617;48.836;9.172;2023-09-12T13:14:39;5.68;;;4.18;;
7150;SDS011;3617;48.836;9.172;2023-09-12T13:17:05;5.50;;;4.53;;
7150;SDS011;3617;48.836;9.172;2023-09-12T13:19:31;6.88;;;4.15;;
7150;SDS011;3617;48.836;9.172;2023-09-12T13:21:58;5.93;;;4.45;;
7150;SDS011;3617;48.836;9.172;2023-09-12T13:24:24;5.07;;;4.18;;
7150;SDS011;3617;48.836;9.172;2023-09-12T13:26:50;5.78;;;4.50;;
7150;SDS011;3617;48.836;9.172;2023-09-12T13:29:16;6.13;;;4.25;;
7150;SDS011;3617;48.836;9.172;2023-09-12T13:31:42;4.95;;;3.90;;
7150;SDS011;3617;48.836;9.172;2023-09-12T13:34:08;4.95;;;3.95;;
7150;SDS011;3617;48.836;9.172;2023-09-12T13:36:34;6.90;;;4.28;;
7150;SDS011;3617;48.836;9.172;2023-09-12T13:39:00;4.32;;;3.85;;
7150;SDS011;3617;48.836;9.172;2023-09-12T13:41:27;6.35;;;4.07;;
7150;SDS011;3617;48.836;9.172;2023-09-12T13:43:53;9.13;;;4.30;;
7150;SDS011;3617;48.836;9.172;2023-09-12T13:46:19;5.22;;;3.70;;
7150;SDS011;3617;48.836;9.172;2023-09-12T13:48:45;6.13;;;4.00;;
7150;SDS011;3617;48.836;9.172;2023-09-12T13:51:11;5.57;;;3.88;;
7150;SDS011;3617;48.836;9.172;2023-09-12T13:53:38;6.85;;;4.00;;
7150;SDS011;3617;48.836;9.172;2023-09-12T13:56:04;5.15;;;3.88;;
7150;SDS011;3617;48.836;9.172;2023-09-12T13:58:33;7.10;;;4.18;;
7150;SDS011;3617;48.836;9.172;2023-09-12T14:00:59;5.72;;;4.50;;
7150;SDS011;3617;48.836;9.172;2023-09-12T14:03:25;6.72;;;4.65;;
7150;SDS011;3617;48.836;9.172;2023-09-12T14:05:51;4.88;;;4.03;;
7150;SDS011;3617;48.836;9.172;2023-09-12T14:08:17;7.55;;;4.20;;
7150;SDS011;3617;48.836;9.172;2023-09-12T14:10:43;7.45;;;4.40;;
7150;SDS011;3617;48.836;9.172;2023-09-12T14:13:09;5.80;;;4.25;;
7150;SDS011;3617;48.836;9.172;2023-09-12T14:15:35;6.53;;;4.57;;
7150;SDS011;3617;48.836;9.172;2023-09-12T14:18:00;5.88;;;4.25;;
7150;SDS011;3617;48.836;9.172;2023-09-12T14:20:27;6.88;;;4.40;;
7150;SDS011;3617;48.836;9.172;2023-09-12T14:22:53;5.53;;;4.50;;
7150;SDS011;3617;48.836;9.172;2023-09-12T14:25:19;5.07;;;4.13;;
7150;SDS011;3617;48.836;9.172;2023-09-12T14:27:45;6.93;;;4.30;;
7150;SDS011;3617;48.836;9.172;2023-09-12T14:30:11;5.97;;;4.55;;
7150;SDS011;3617;48.836;9.172;2023-09-12T14:32:40;6.20;;;4.80;;
7150;SDS011;3617;48.836;9.172;2023-09-12T14:35:06;10.00;;;5.03;;
7150;SDS011;3617;48.836;9.172;2023-09-12T14:37:32;6.53;;;4.25;;
7150;SDS011;3617;48.836;9.172;2023-09-12T14:39:58;6.43;;;4.30;;
7150;SDS011;3617;48.836;9.172;2023-09-12T14:42:24;5.30;;;4.18;;
7150;SDS011;3617;48.836;9.172;2023-09-12T14:44:50;5.80;;;4.97;;
7150;SDS011;3617;48.836;9.172;2023-09-12T14:47:16;7.30;;;4.90;;
7150;SDS011;3617;48.836;9.172;2023-09-12T14:49:42;6.45;;;4.68;;
7150;SDS011;3617;48.836;9.172;2023-09-12T14:52:09;7.72;;;4.30;;
7150;SDS011;3617;48.836;9.172;2023-09-12T14:54:35;9.02;;;4.80;;
7150;SDS011;3617;48.836;9.172;2023-09-12T14:57:01;5.68;;;4.13;;
7150;SDS011;3617;48.836;9.172;2023-09-12T14:59:27;7.07;;;3.95;;
7150;SDS011;3617;48.836;9.172;2023-09-12T15:01:53;5.32;;;4.60;;
7150;SDS011;3617;48.836;9.172;2023-09-12T15:04:19;6.45;;;4.40;;
7150;SDS011;3617;48.836;9.172;2023-09-12T15:06:45;6.47;;;4.30;;
7150;SDS011;3617;48.836;9.172;2023-09-12T15:09:11;5.53;;;4.30;;
7150;SDS011;3617;48.836;9.172;2023-09-12T15:11:37;5.18;;;4.07;;
7150;SDS011;3617;48.836;9.172;2023-09-12T15:14:03;6.72;;;4.40;;
7150;SDS011;3617;48.836;9.172;2023-09-12T15:16:29;6.30;;;4.65;;
7150;SDS011;3617;48.836;9.172;2023-09-12T15:18:59;7.85;;;4.65;;
7150;SDS011;3617;48.836;9.172;2023-09-12T15:21:27;5.50;;;4.03;;
7150;SDS011;3617;48.836;9.172;2023-09-12T15:23:52;6.30;;;4.55;;
7150;SDS011;3617;48.836;9.172;2023-09-12T15:26:18;5.85;;;4.00;;